Terminal Aerodrome Forecast
Issued by NWS Cleveland, OH

Home | Current Version | Previous Version | Graphics & Text | Print | Product List | Glossary On
Versions: 1 2 3 4 5 6 7 8 9 10 11 12 13 14 15 16 17 18 19 20 21 22 23 24 25 26 27
000
FTUS41 KCLE 210529
TAFCLE
TAF
KCLE 210529Z 2106/2212 VRB05KT 4SM BR OVC012
      TEMPO 2106/2109 1SM BR OVC007
     FM211100 35005KT P6SM OVC015
     FM211500 31012G20KT P6SM SCT035
     FM220200 35014G22KT P6SM BKN035=

USA.gov is the U.S. government's official web portal to all federal, state and local government web resources and services.